Time;durP1;ratioP1;P1;durP2;ratioP2;P2;SDS_P1;SDS_P2;PMS_P1;PMS_P2;Temp;Humidity;BMP_temperature;BMP_pressure;BME280_temperature;BME280_humidity;BME280_pressure;Samples;Min_cycle;Max_cycle;Signal;HPM_P1;HPM_P2
2021/11/25 00:01:03;;;;;;;37.17;24.02;;;1.80;81.90;;;-0.31;91.52;95635.28;4954585;28;20038;-66
2021/11/25 00:03:29;;;;;;;41.70;23.98;;;1.80;81.90;;;-0.31;91.63;95621.56;4983418;28;20030;-63
2021/11/25 00:05:55;;;;;;;40.58;23.38;;;1.80;81.90;;;-0.31;92.12;95613.81;4989328;28;20651;-63
2021/11/25 00:08:20;;;;;;;40.67;23.73;;;1.80;82.20;;;-0.29;91.76;95606.72;4967757;28;20498;-63
2021/11/25 00:10:46;;;;;;;43.15;24.50;;;1.90;82.10;;;-0.27;91.87;95610.00;4989541;28;20061;-63
2021/11/25 00:13:13;;;;;;;42.88;24.20;;;2.00;82.00;;;-0.27;91.89;95610.00;4997931;28;20126;-63
2021/11/25 00:15:39;;;;;;;42.22;24.98;;;2.00;81.90;;;-0.26;92.11;95603.88;4972319;28;20062;-63
2021/11/25 00:18:05;;;;;;;38.58;23.73;;;1.90;82.00;;;-0.26;92.09;95605.63;4973115;28;20045;-63
2021/11/25 00:20:31;;;;;;;44.08;25.33;;;1.90;82.20;;;-0.27;91.77;95599.66;4987584;28;20038;-63
2021/11/25 00:22:57;;;;;;;43.03;25.55;;;1.90;81.90;;;-0.26;92.62;95590.94;4961839;28;20030;-63
2021/11/25 00:25:22;;;;;;;42.85;25.40;;;2.00;81.90;;;-0.23;92.36;95593.25;4993956;28;20130;-63
2021/11/25 00:27:49;;;;;;;40.40;24.25;;;1.90;82.10;;;-0.20;92.64;95598.19;4986449;28;20135;-65
2021/11/25 00:30:15;;;;;;;39.50;24.75;;;2.10;82.00;;;-0.22;92.11;95594.94;4972574;28;20486;-63
2021/11/25 00:32:40;;;;;;;44.78;26.02;;;1.90;81.90;;;-0.28;92.75;95587.69;4973605;28;20045;-63
2021/11/25 00:35:07;;;;;;;44.00;25.25;;;1.90;82.30;;;-0.29;92.40;95586.06;4978371;28;20034;-64
2021/11/25 00:37:33;;;;;;;42.05;24.17;;;1.90;82.30;;;-0.30;92.21;95581.84;4988856;28;20097;-63
2021/11/25 00:39:58;;;;;;;44.88;24.80;;;1.80;82.20;;;-0.31;92.40;95583.63;4988778;28;20038;-63
2021/11/25 00:42:24;;;;;;;41.17;23.63;;;1.80;82.30;;;-0.34;92.64;95568.38;4972530;28;20168;-63
2021/11/25 00:44:53;;;;;;;41.83;24.25;;;1.80;82.20;;;-0.34;92.65;95573.56;4988667;28;20501;-63
2021/11/25 00:47:18;;;;;;;40.70;23.92;;;1.80;82.40;;;-0.37;92.34;95573.81;4955687;28;20034;-64
2021/11/25 00:49:44;;;;;;;37.05;23.58;;;1.70;82.30;;;-0.38;92.52;95572.19;4986779;28;20215;-64
2021/11/25 00:52:10;;;;;;;39.75;23.40;;;1.70;82.10;;;-0.40;92.92;95573.28;4979426;28;20042;-64
2021/11/25 00:54:36;;;;;;;35.58;21.60;;;1.70;82.20;;;-0.41;92.17;95576.81;4989394;28;20057;-64
2021/11/25 00:57:01;;;;;;;34.35;21.27;;;1.70;82.10;;;-0.41;92.13;95576.81;4989524;28;20520;-63
2021/11/25 00:59:27;;;;;;;36.13;22.42;;;1.60;82.00;;;-0.42;92.03;95576.00;4973554;28;20408;-64
2021/11/25 01:01:53;;;;;;;36.90;22.65;;;1.70;82.00;;;-0.42;92.61;95575.19;4988051;28;20195;-64
2021/11/25 01:04:18;;;;;;;37.25;22.95;;;1.70;82.20;;;-0.39;92.64;95572.31;4987067;28;20054;-64
2021/11/25 01:06:44;;;;;;;38.47;23.50;;;1.70;82.20;;;-0.38;92.03;95567.03;4988886;28;20022;-64
2021/11/25 01:09:10;;;;;;;42.22;25.17;;;1.70;82.10;;;-0.45;92.11;95565.13;4955104;28;20058;-64
2021/11/25 01:11:36;;;;;;;41.22;24.23;;;1.70;82.10;;;-0.42;92.36;95564.84;4954763;28;20270;-64
2021/11/25 01:14:01;;;;;;;41.70;24.75;;;1.80;82.10;;;-0.39;92.77;95569.75;4987751;28;20208;-64
2021/11/25 01:16:27;;;;;;;48.90;26.20;;;1.80;82.10;;;-0.39;92.79;95564.56;4983433;28;20737;-64
2021/11/25 01:18:53;;;;;;;41.53;25.65;;;1.80;82.10;;;-0.38;92.47;95561.03;4967921;28;20121;-66
2021/11/25 01:21:19;;;;;;;40.42;24.77;;;1.90;82.30;;;-0.36;93.01;95557.38;4988400;28;20062;-63
2021/11/25 01:23:44;;;;;;;44.42;25.40;;;1.90;82.30;;;-0.37;92.69;95542.00;4989255;28;20109;-63
2021/11/25 01:26:10;;;;;;;45.72;26.70;;;1.90;82.20;;;-0.34;93.29;95541.72;4976154;28;20065;-63
2021/11/25 01:28:36;;;;;;;45.17;26.48;;;1.90;82.20;;;-0.34;93.34;95546.91;4957215;28;20038;-63
2021/11/25 01:31:02;;;;;;;45.13;26.83;;;1.80;82.30;;;-0.35;93.12;95542.69;4988834;28;20441;-62
2021/11/25 01:33:31;;;;;;;44.80;26.35;;;1.80;82.40;;;-0.35;93.43;95534.94;4972191;28;20062;-63
2021/11/25 01:35:57;;;;;;;42.90;24.00;;;1.80;82.20;;;-0.39;93.22;95529.22;4988532;28;20031;-63
2021/11/25 01:38:23;;;;;;;38.85;24.25;;;1.80;82.20;;;-0.37;92.50;95531.66;4971967;28;20093;-63
2021/11/25 01:40:49;;;;;;;37.88;24.02;;;1.80;82.10;;;-0.41;92.87;95525.97;4970599;28;20031;-63
2021/11/25 01:43:20;;;;;;;46.28;24.70;;;1.70;82.10;;;-0.43;92.57;95529.63;5000136;28;20426;-63
2021/11/25 01:45:48;;;;;;;44.53;24.90;;;1.70;82.40;;;-0.46;93.28;95522.13;4972383;28;20529;-63
2021/11/25 01:48:13;;;;;;;41.47;23.92;;;1.60;82.50;;;-0.46;92.70;95522.94;4939450;28;20045;-63
2021/11/25 01:50:39;;;;;;;40.25;23.65;;;1.70;82.50;;;-0.44;93.02;95525.41;4970513;28;20038;-64
2021/11/25 01:53:06;;;;;;;42.38;24.25;;;1.70;82.20;;;-0.44;93.04;95515.09;4972393;28;20462;-63
2021/11/25 01:55:32;;;;;;;40.80;24.50;;;1.70;82.20;;;-0.46;93.29;95522.13;4952184;28;20510;-63
2021/11/25 01:57:57;;;;;;;39.35;22.67;;;1.70;82.20;;;-0.48;92.85;95509.34;4992193;28;20077;-63
2021/11/25 02:00:49;;;;;;;40.05;23.83;;;1.60;82.30;;;-0.49;93.38;95506.91;4987602;28;20038;-64
2021/11/25 02:03:15;;;;;;;40.70;24.90;;;1.60;82.40;;;-0.53;92.75;95508.13;4989165;28;20046;-63
2021/11/25 02:05:41;;;;;;;36.83;23.45;;;1.60;82.30;;;-0.53;92.87;95515.88;4969890;28;20043;-63
2021/11/25 02:08:06;;;;;;;41.15;24.42;;;1.60;82.40;;;-0.54;93.14;95509.09;4987199;28;20050;-63
2021/11/25 02:10:33;;;;;;;39.03;23.98;;;1.60;82.30;;;-0.56;92.74;95500.66;4968072;28;20035;-63
2021/11/25 02:12:58;;;;;;;39.08;24.45;;;1.60;82.20;;;-0.55;93.01;95507.44;4987417;28;20038;-63
2021/11/25 02:15:24;;;;;;;46.80;25.45;;;1.70;82.30;;;-0.54;92.83;95488.41;4971759;28;20446;-63
2021/11/25 02:17:50;;;;;;;40.17;23.40;;;1.70;82.40;;;-0.52;93.30;95487.31;4953314;28;20529;-63
2021/11/25 02:20:16;;;;;;;45.15;25.73;;;1.70;82.40;;;-0.51;93.56;95488.16;4954657;28;20065;-63
2021/11/25 02:22:42;;;;;;;44.47;26.00;;;1.70;82.60;;;-0.49;93.25;95486.25;4942248;28;20441;-63
2021/11/25 02:25:09;;;;;;;42.05;24.65;;;1.70;82.40;;;-0.51;93.35;95473.47;4957047;28;20035;-63
2021/11/25 02:27:35;;;;;;;44.90;25.98;;;1.70;82.40;;;-0.51;92.92;95472.66;4967429;28;20137;-63
2021/11/25 02:30:02;;;;;;;40.08;24.73;;;1.60;82.30;;;-0.51;93.25;95470.88;4953254;28;20041;-63
2021/11/25 02:32:33;;;;;;;39.78;23.20;;;1.60;82.40;;;-0.49;93.18;95470.75;4983495;28;20030;-63
2021/11/25 02:34:59;;;;;;;;;;;1.70;82.20;;;-0.47;94.35;95468.84;4956287;28;20035;-63
2021/11/25 02:37:25;;;;;;;41.35;23.77;;;1.70;82.30;;;-0.47;92.81;95458.50;4987049;28;20008;-63
2021/11/25 02:39:51;;;;;;;42.08;24.00;;;1.70;82.30;;;-0.48;92.73;95459.44;4970342;28;20026;-63
2021/11/25 02:42:17;;;;;;;42.15;24.75;;;1.60;82.40;;;-0.51;93.21;95454.56;4954132;28;20534;-63
2021/11/25 02:44:42;;;;;;;41.75;25.40;;;1.60;82.40;;;-0.54;93.12;95457.41;4955116;28;20038;-63
2021/11/25 02:47:08;;;;;;;44.15;25.70;;;1.70;82.50;;;-0.52;93.16;95451.16;5001567;28;20038;-63
2021/11/25 02:49:34;;;;;;;43.75;25.42;;;1.70;82.70;;;-0.50;93.15;95443.28;4987398;28;20133;-63
2021/11/25 02:52:00;;;;;;;43.80;25.20;;;1.80;82.50;;;-0.50;93.42;95443.28;4987626;28;20038;-63
2021/11/25 02:54:25;;;;;;;45.53;25.85;;;1.60;82.40;;;-0.54;93.57;95441.94;4969350;28;20170;-63
2021/11/25 02:56:51;;;;;;;44.58;25.42;;;1.60;82.60;;;-0.52;93.75;95450.34;4952815;28;20139;-63
2021/11/25 02:59:18;;;;;;;41.17;24.27;;;1.60;82.60;;;-0.54;93.27;95458.25;4985698;28;20049;-63
2021/11/25 03:01:43;;;;;;;46.20;25.83;;;1.60;82.80;;;-0.52;93.26;95451.16;4972432;28;20134;-63
2021/11/25 03:04:09;;;;;;;44.03;25.33;;;1.60;82.70;;;-0.52;93.67;95445.19;4985977;28;20038;-63
2021/11/25 03:06:35;;;;;;;43.00;25.20;;;1.60;82.80;;;-0.54;93.64;95449.69;4985933;28;20038;-63
2021/11/25 03:09:01;;;;;;;42.92;25.52;;;1.70;82.60;;;-0.54;93.50;95455.66;4977297;28;20033;-63
2021/11/25 03:11:28;;;;;;;41.72;24.27;;;1.60;82.50;;;-0.52;93.36;95450.34;4985836;28;20133;-63
2021/11/25 03:13:59;;;;;;;40.78;23.63;;;1.70;82.30;;;-0.50;93.47;95448.44;4957412;28;20035;-63
2021/11/25 03:16:24;;;;;;;41.08;24.40;;;1.80;82.00;;;-0.49;93.62;95452.66;4979704;28;20037;-61
2021/11/25 03:18:50;;;;;;;49.75;28.80;;;1.80;82.00;;;-0.48;93.88;95451.69;4986942;28;20026;-65
2021/11/25 03:21:17;;;;;;;48.40;27.52;;;1.80;82.20;;;-0.45;93.79;95448.88;4987947;28;20042;-62
2021/11/25 03:23:44;;;;;;;41.25;24.83;;;1.80;82.50;;;-0.43;93.84;95444.38;4972382;28;20030;-64
2021/11/25 03:26:10;;;;;;;39.88;24.05;;;1.80;82.20;;;-0.46;93.70;95440.28;4987734;28;20049;-64
2021/11/25 03:28:42;;;;;;;40.70;24.25;;;1.70;82.10;;;-0.47;93.20;95437.84;4988145;28;20406;-63
2021/11/25 03:31:08;;;;;;;40.25;23.25;;;1.70;82.30;;;-0.48;93.58;95441.38;4972538;28;20035;-63
2021/11/25 03:33:35;;;;;;;42.83;25.08;;;1.60;82.30;;;-0.54;93.18;95447.09;4988207;28;20035;-63
2021/11/25 03:36:03;;;;;;;50.17;28.52;;;1.60;82.40;;;-0.51;93.40;95441.66;4987984;28;20129;-63
2021/11/25 03:38:29;;;;;;;62.22;35.83;;;1.70;82.30;;;-0.49;93.35;95434.56;4971938;28;20093;-65
2021/11/25 03:40:55;;;;;;;75.85;46.40;;;1.70;82.40;;;-0.49;93.41;95429.41;4985769;28;20031;-63
2021/11/25 03:43:21;;;;;;;47.10;27.58;;;1.70;82.50;;;-0.50;93.22;95427.78;4979940;28;20026;-63
2021/11/25 03:45:47;;;;;;;43.15;26.55;;;1.70;82.20;;;-0.49;93.37;95430.22;4975723;28;20050;-63
2021/11/25 03:48:12;;;;;;;49.58;31.00;;;1.80;82.00;;;-0.50;93.55;95427.78;4975512;28;20061;-63
2021/11/25 03:50:38;;;;;;;42.35;25.17;;;1.70;82.10;;;-0.52;93.43;95424.53;4958725;28;20201;-63
2021/11/25 03:53:04;;;;;;;43.38;25.20;;;1.60;82.30;;;-0.52;93.62;95409.03;4956347;28;20499;-63
2021/11/25 03:55:30;;;;;;;43.03;24.58;;;1.70;82.40;;;-0.52;94.00;95414.19;4979957;28;20705;-63
2021/11/25 03:57:56;;;;;;;45.38;25.83;;;1.70;82.40;;;-0.52;93.46;95420.16;4991536;28;20041;-63
2021/11/25 04:00:22;;;;;;;40.20;24.55;;;1.70;82.50;;;-0.50;93.07;95417.44;4974749;28;20548;-63
2021/11/25 04:02:49;;;;;;;48.45;27.13;;;1.70;82.20;;;-0.52;93.54;95412.41;4990890;28;20113;-63
2021/11/25 04:05:16;;;;;;;56.47;31.92;;;1.70;82.40;;;-0.53;93.96;95407.41;4975689;28;20118;-63
2021/11/25 04:07:42;;;;;;;43.58;25.33;;;1.70;82.50;;;-0.51;93.80;95415.81;4987020;28;20034;-63
2021/11/25 04:10:09;;;;;;;43.55;25.65;;;1.60;82.30;;;-0.50;93.67;95407.13;4991370;28;20058;-65
2021/11/25 04:12:34;;;;;;;40.78;24.08;;;1.70;82.50;;;-0.48;93.48;95407.78;4987787;28;20113;-63
2021/11/25 04:15:00;;;;;;;44.53;24.48;;;1.60;82.30;;;-0.50;93.31;95401.94;4990923;28;20505;-63
2021/11/25 04:17:26;;;;;;;38.13;23.10;;;1.60;82.60;;;-0.49;93.62;95406.97;4974930;28;20113;-63
2021/11/25 04:19:52;;;;;;;43.70;24.52;;;1.70;82.30;;;-0.45;93.87;95416.09;4959319;28;20041;-63
2021/11/25 04:22:21;;;;;;;42.40;24.55;;;1.70;82.20;;;-0.47;93.20;95404.25;4974256;28;20081;-63
2021/11/25 04:24:50;;;;;;;42.13;24.10;;;1.70;82.30;;;-0.49;93.22;95403.56;4975775;28;20042;-63
2021/11/25 04:27:16;;;;;;;37.88;23.75;;;1.50;82.50;;;-0.51;93.40;95398.56;4990895;28;20034;-63
2021/11/25 04:29:46;;;;;;;39.67;23.65;;;1.70;82.80;;;-0.49;93.25;95398.41;4975431;28;20038;-63
2021/11/25 04:37:42;;;;;;;42.42;24.83;;;1.70;82.30;;;-0.48;93.54;95389.72;4977236;28;20126;-63
2021/11/25 04:40:10;;;;;;;41.35;24.50;;;1.70;82.30;;;-0.49;93.43;95380.34;4991917;28;20034;-63
2021/11/25 04:42:35;;;;;;;44.33;24.20;;;1.80;82.30;;;-0.49;93.67;95380.34;4990361;28;20089;-63
2021/11/25 04:45:01;;;;;;;41.03;24.58;;;1.80;82.50;;;-0.50;93.78;95365.78;4992215;28;20042;-64
2021/11/25 04:47:27;;;;;;;38.40;22.15;;;1.80;82.60;;;-0.49;93.69;95375.16;4969839;28;20090;-64
2021/11/25 04:49:52;;;;;;;41.22;23.10;;;1.70;82.40;;;-0.56;93.88;95367.16;5010864;28;20115;-63
2021/11/25 04:52:18;;;;;;;37.50;22.60;;;1.60;82.70;;;-0.51;93.89;95366.75;4974134;28;20086;-63
2021/11/25 04:54:44;;;;;;;37.28;22.30;;;1.60;82.40;;;-0.53;93.36;95366.06;4990731;28;20034;-63
2021/11/25 04:57:10;;;;;;;35.05;20.85;;;1.60;82.50;;;-0.53;93.51;95360.91;5003237;28;20034;-63
2021/11/25 04:59:35;;;;;;;37.92;21.88;;;1.60;82.30;;;-0.55;93.54;95373.13;4996052;28;20050;-63
2021/11/25 05:02:01;;;;;;;37.22;22.33;;;1.50;82.80;;;-0.57;93.58;95362.94;4990873;28;20184;-63
2021/11/25 05:04:27;;;;;;;39.70;23.15;;;1.60;82.70;;;-0.54;93.48;95367.03;4973868;28;20042;-63
2021/11/25 05:06:53;;;;;;;39.05;22.25;;;1.60;82.70;;;-0.54;93.74;95360.09;4990999;28;20026;-63
2021/11/25 05:09:18;;;;;;;39.17;22.13;;;1.60;82.70;;;-0.58;93.50;95355.34;4998109;28;20081;-63
2021/11/25 05:11:44;;;;;;;40.03;23.42;;;1.50;82.60;;;-0.60;93.79;95358.06;5010552;28;20042;-63
2021/11/25 05:14:10;;;;;;;41.92;23.90;;;1.60;82.50;;;-0.62;93.79;95363.38;4979753;28;20049;-64
2021/11/25 05:16:36;;;;;;;42.80;24.60;;;1.50;82.90;;;-0.60;93.92;95359.84;4974686;28;20038;-63
2021/11/25 05:19:01;;;;;;;44.90;23.20;;;1.50;83.00;;;-0.63;93.73;95351.41;4974835;28;20038;-63
2021/11/25 05:21:27;;;;;;;40.03;24.23;;;1.60;83.20;;;-0.62;94.18;95341.91;4958632;28;20387;-63
2021/11/25 05:23:53;;;;;;;41.13;24.52;;;1.60;83.00;;;-0.60;93.79;95359.84;4974197;28;20066;-63
2021/11/25 05:26:18;;;;;;;39.20;22.63;;;1.60;83.00;;;-0.60;94.18;95365.00;4990002;28;20069;-63
2021/11/25 05:28:44;;;;;;;42.85;23.27;;;1.60;82.90;;;-0.64;93.81;95354.97;4974648;28;20486;-63
2021/11/25 05:31:10;;;;;;;40.65;22.88;;;1.60;82.80;;;-0.66;94.28;95349.13;4974769;28;20084;-63
2021/11/25 05:33:36;;;;;;;38.53;22.67;;;1.60;82.80;;;-0.63;94.04;95360.94;4990029;28;20030;-63
2021/11/25 05:36:02;;;;;;;42.20;23.80;;;1.50;83.00;;;-0.64;94.10;95357.53;4990394;28;20569;-63
2021/11/25 05:38:27;;;;;;;37.78;22.85;;;1.50;83.20;;;-0.62;94.42;95358.22;4957645;28;20501;-64
2021/11/25 05:40:53;;;;;;;39.83;22.30;;;1.60;82.90;;;-0.57;94.45;95364.72;4974510;28;20034;-63
2021/11/25 05:43:19;;;;;;;39.75;23.50;;;1.60;82.90;;;-0.59;94.05;95357.13;4992015;28;20058;-63
2021/11/25 05:45:45;;;;;;;48.05;23.90;;;1.60;83.00;;;-0.59;93.68;95356.31;4990714;28;20038;-63
2021/11/25 05:48:10;;;;;;;38.15;22.27;;;1.50;82.80;;;-0.59;94.31;95356.31;4992717;28;20050;-63
2021/11/25 05:50:36;;;;;;;37.78;21.75;;;1.60;83.10;;;-0.60;93.89;95354.66;5005797;28;20093;-64
2021/11/25 05:53:02;;;;;;;39.13;23.15;;;1.60;82.80;;;-0.60;94.10;95359.84;4988748;28;20048;-64
2021/11/25 05:55:29;;;;;;;41.58;22.15;;;1.70;82.50;;;-0.62;94.17;95360.78;4956907;28;20584;-64
2021/11/25 05:57:58;;;;;;;42.50;23.45;;;1.60;82.70;;;-0.64;94.62;95354.13;4990744;28;20034;-64
2021/11/25 06:00:24;;;;;;;43.92;23.58;;;1.60;82.70;;;-0.59;94.62;95361.47;4957185;28;20088;-64
2021/11/25 06:02:50;;;;;;;45.25;23.20;;;1.70;82.80;;;-0.59;94.63;95351.13;4972927;28;20034;-64
2021/11/25 06:05:19;;;;;;;42.30;23.90;;;1.70;82.90;;;-0.56;95.13;95356.03;4972693;28;20042;-64
2021/11/25 06:07:46;;;;;;;43.70;22.95;;;1.70;82.90;;;-0.56;94.94;95356.03;4958152;28;20034;-64
2021/11/25 06:10:13;;;;;;;40.10;21.90;;;1.70;82.90;;;-0.53;94.90;95348.81;4956771;28;20034;-63
2021/11/25 06:12:39;;;;;;;41.38;21.55;;;1.80;82.90;;;-0.54;94.51;95341.19;4972897;28;20045;-64
2021/11/25 06:15:06;;;;;;;44.95;23.58;;;1.70;82.90;;;-0.53;94.58;95350.56;4972954;28;20066;-63
2021/11/25 06:17:31;;;;;;;45.08;23.38;;;1.70;82.80;;;-0.54;94.66;95336.03;4972971;28;20046;-64
2021/11/25 06:19:57;;;;;;;39.55;22.02;;;1.80;82.90;;;-0.53;94.94;95330.72;4973054;28;20034;-64
2021/11/25 06:22:23;;;;;;;43.13;24.20;;;1.80;82.80;;;-0.51;94.53;95335.75;4971971;28;20486;-63
2021/11/25 06:24:49;;;;;;;40.65;22.13;;;1.80;82.70;;;-0.49;94.60;95336.41;4972958;28;20041;-64
2021/11/25 06:27:15;;;;;;;41.53;23.02;;;1.70;82.70;;;-0.52;94.84;95331.53;4956558;28;20125;-63
2021/11/25 06:29:41;;;;;;;40.78;22.17;;;1.70;82.70;;;-0.54;94.67;95328.28;4973013;28;20053;-65
2021/11/25 06:32:07;;;;;;;41.63;22.52;;;1.70;82.50;;;-0.52;94.71;95341.88;4956131;28;20100;-63
2021/11/25 06:34:33;;;;;;;38.00;22.02;;;1.70;82.60;;;-0.50;94.38;95337.38;4972466;28;20038;-63
2021/11/25 06:37:00;;;;;;;37.13;21.48;;;1.70;82.60;;;-0.50;94.67;95330.44;4988771;28;20056;-63
2021/11/25 06:39:25;;;;;;;35.55;20.98;;;1.80;82.50;;;-0.49;94.33;95341.59;4972699;28;20401;-64
2021/11/25 06:41:51;;;;;;;37.45;21.83;;;1.90;82.30;;;-0.47;94.64;95350.00;4972626;28;20108;-63
2021/11/25 06:44:17;;;;;;;41.53;22.55;;;1.80;82.20;;;-0.46;94.71;95346.47;4971686;28;20371;-63
2021/11/25 06:46:42;;;;;;;41.83;23.65;;;1.80;82.00;;;-0.47;94.13;95360.34;4972411;28;20031;-63
2021/11/25 06:49:08;;;;;;;40.50;23.33;;;1.80;82.20;;;-0.49;94.45;95351.91;4988162;28;20033;-63
2021/11/25 06:51:34;;;;;;;39.50;22.90;;;1.80;82.20;;;-0.49;94.28;95357.91;4988603;28;20054;-63
2021/11/25 06:54:00;;;;;;;38.95;23.52;;;1.80;82.10;;;-0.51;93.95;95353.81;4988567;28;20034;-64
2021/11/25 06:56:25;;;;;;;39.17;22.85;;;1.80;81.90;;;-0.50;93.75;95351.09;4971398;28;20050;-65
2021/11/25 06:58:52;;;;;;;37.83;21.65;;;1.70;82.00;;;-0.47;93.99;95360.34;4988476;28;20198;-64
2021/11/25 07:01:19;;;;;;;46.13;20.95;;;1.80;82.20;;;-0.52;94.03;95353.00;4972621;28;20094;-65
2021/11/25 07:03:44;;;;;;;41.70;21.10;;;1.60;81.90;;;-0.59;93.63;95345.97;4956341;28;20038;-64
2021/11/25 07:06:10;;;;;;;37.90;20.30;;;1.50;82.90;;;-0.56;93.75;95345.69;4987802;28;20093;-65
2021/11/25 07:08:36;;;;;;;41.65;22.23;;;1.60;82.60;;;-0.56;94.31;95341.34;4988154;28;20162;-65
2021/11/25 07:11:01;;;;;;;39.15;21.10;;;1.70;82.80;;;-0.55;94.02;95357.66;4972438;28;20504;-63
2021/11/25 07:13:27;;;;;;;37.83;22.02;;;1.70;82.50;;;-0.55;94.28;95342.16;4955495;28;20069;-64
2021/11/25 07:15:53;;;;;;;57.50;23.25;;;1.80;82.50;;;-0.57;94.33;95349.22;4988424;28;20034;-64
2021/11/25 07:18:19;;;;;;;41.55;23.00;;;1.70;82.60;;;-0.59;94.37;95348.56;4957840;28;20170;-64
2021/11/25 07:20:45;;;;;;;42.38;23.45;;;1.70;82.80;;;-0.56;94.42;95350.84;4976289;28;20037;-64
2021/11/25 07:23:11;;;;;;;42.47;22.95;;;1.70;83.00;;;-0.59;94.90;95351.13;4959753;28;20038;-64
2021/11/25 07:25:36;;;;;;;43.55;23.30;;;1.70;83.00;;;-0.52;94.48;95347.03;4992286;28;20046;-64
2021/11/25 07:28:02;;;;;;;40.97;22.90;;;1.70;83.00;;;-0.49;95.24;95347.56;4992307;28;20103;-64
2021/11/25 07:30:28;;;;;;;43.45;22.45;;;1.80;82.90;;;-0.48;95.15;95338.03;4992934;28;20030;-64
2021/11/25 07:32:54;;;;;;;39.35;22.38;;;1.80;82.40;;;-0.46;94.71;95346.47;4992160;28;20092;-64
2021/11/25 07:35:20;;;;;;;36.80;20.77;;;1.80;82.30;;;-0.45;94.33;95353.28;4993120;28;20668;-64
2021/11/25 07:37:48;;;;;;;38.70;20.85;;;1.80;82.20;;;-0.43;94.24;95367.69;4956828;28;20375;-64
2021/11/25 07:40:14;;;;;;;34.80;19.90;;;1.80;82.20;;;-0.40;94.17;95351.91;4991487;28;20030;-64
2021/11/25 07:42:40;;;;;;;43.15;20.90;;;1.80;82.10;;;-0.41;94.08;95359.81;4991789;28;20039;-64
2021/11/25 07:45:06;;;;;;;38.63;21.38;;;1.80;82.00;;;-0.39;94.14;95361.28;4960081;28;20062;-64
2021/11/25 07:47:34;;;;;;;36.72;20.88;;;1.90;82.10;;;-0.42;94.52;95347.84;4991860;28;20061;-64
2021/11/25 07:50:10;;;;;;;35.88;20.20;;;1.90;81.90;;;-0.42;94.13;95329.75;4960317;28;20038;-64
2021/11/25 07:52:36;;;;;;;39.55;22.08;;;1.90;81.90;;;-0.40;94.19;95328.66;4943585;28;20131;-64
2021/11/25 07:55:03;;;;;;;36.88;20.25;;;1.90;81.90;;;-0.40;93.88;95327.84;4975995;28;20034;-64
2021/11/25 07:57:28;;;;;;;38.90;20.02;;;1.80;81.50;;;-0.42;94.01;95322.00;4975266;28;20034;-64
2021/11/25 07:59:54;;;;;;;34.80;19.33;;;1.90;81.80;;;-0.40;94.03;95320.09;4991697;28;20053;-64
2021/11/25 08:02:20;;;;;;;37.45;19.70;;;1.90;81.60;;;-0.41;93.56;95313.31;4974658;28;20039;-64
2021/11/25 08:04:49;;;;;;;32.53;18.67;;;1.90;81.10;;;-0.42;93.87;95311.69;4959779;28;20054;-64
2021/11/25 08:07:15;;;;;;;35.67;19.13;;;1.90;81.10;;;-0.44;93.86;95300.66;4975528;28;20058;-64
2021/11/25 08:09:41;;;;;;;33.40;18.42;;;1.80;81.40;;;-0.41;94.26;95300.38;4959589;28;20056;-64
2021/11/25 08:12:07;;;;;;;38.78;21.17;;;1.90;82.20;;;-0.36;94.47;95304.16;4958708;28;20033;-65
2021/11/25 08:14:33;;;;;;;35.65;19.80;;;2.10;82.20;;;-0.31;94.47;95293.41;4975124;28;20209;-64
2021/11/25 08:16:59;;;;;;;41.50;23.48;;;2.00;81.40;;;-0.27;94.31;95305.06;4943364;28;20204;-64
2021/11/25 08:19:29;;;;;;;33.95;19.55;;;2.10;81.30;;;-0.25;94.19;95307.50;4991199;28;20505;-64
2021/11/25 08:21:55;;;;;;;40.13;22.27;;;2.10;81.30;;;-0.23;93.78;95296.06;4943428;28;20077;-64
2021/11/25 08:24:20;;;;;;;34.83;19.80;;;2.10;81.00;;;-0.21;93.97;95306.28;4958236;28;20034;-64
2021/11/25 08:26:46;;;;;;;33.38;18.60;;;2.10;80.90;;;-0.20;93.62;95303.56;4991343;28;20053;-65
2021/11/25 08:29:12;;;;;;;36.47;20.98;;;2.10;81.00;;;-0.24;93.68;95317.69;4974098;28;20030;-64
2021/11/25 08:31:38;;;;;;;44.08;25.15;;;1.90;81.40;;;-0.25;93.46;95325.59;4991344;28;20118;-64
2021/11/25 08:34:04;;;;;;;48.78;28.48;;;2.00;81.80;;;-0.24;93.66;95329.81;4990809;28;20039;-64
2021/11/25 08:36:30;;;;;;;40.67;22.92;;;2.10;81.50;;;-0.21;93.77;95321.81;4990472;28;20031;-64
2021/11/25 08:38:55;;;;;;;49.65;28.00;;;2.10;81.30;;;-0.20;93.57;95324.25;4958955;28;20034;-64
2021/11/25 08:41:22;;;;;;;36.05;20.83;;;2.20;81.10;;;-0.18;93.71;95319.75;4991071;28;20398;-64
2021/11/25 08:43:48;;;;;;;38.15;20.85;;;2.10;80.80;;;-0.18;93.69;95319.75;4974579;28;20117;-64
2021/11/25 08:46:15;;;;;;;33.65;19.48;;;2.20;81.10;;;-0.15;93.46;95319.47;4974071;28;20039;-64
2021/11/25 08:48:42;;;;;;;36.22;20.55;;;2.10;80.60;;;-0.15;92.89;95327.22;4975212;28;20053;-64
2021/11/25 08:51:08;;;;;;;34.83;19.23;;;2.20;81.00;;;-0.13;93.59;95333.03;4974923;28;20051;-64
2021/11/25 08:53:34;;;;;;;33.13;19.75;;;2.30;80.80;;;-0.09;93.45;95339.56;4958234;28;20038;-64
2021/11/25 08:56:00;;;;;;;29.73;18.05;;;2.40;80.50;;;-0.05;92.89;95343.47;4974548;28;20050;-64
2021/11/25 08:58:25;;;;;;;29.40;17.73;;;2.20;79.90;;;-0.07;93.24;95329.88;4989961;28;20533;-64
2021/11/25 09:00:51;;;;;;;30.50;17.98;;;2.10;80.60;;;-0.06;93.17;95321.19;4974856;28;20054;-64
2021/11/25 09:03:17;;;;;;;36.97;19.35;;;2.20;80.40;;;-0.05;92.65;95317.63;4958115;28;20038;-64
2021/11/25 09:05:43;;;;;;;32.50;18.67;;;2.20;80.20;;;-0.05;92.85;95325.38;4958193;28;20570;-65
2021/11/25 09:08:08;;;;;;;34.00;18.73;;;2.20;80.40;;;-0.04;92.61;95327.00;4973825;28;20506;-65
2021/11/25 09:10:35;;;;;;;33.38;18.65;;;2.30;80.40;;;-0.01;92.53;95326.72;4958363;28;20057;-64
2021/11/25 09:13:03;;;;;;;34.78;20.08;;;2.40;80.20;;;0.06;92.68;95336.50;4990219;28;20027;-64
2021/11/25 09:15:29;;;;;;;35.30;19.63;;;2.50;80.30;;;0.10;93.41;95337.84;4974219;28;20034;-64
2021/11/25 09:17:55;;;;;;;30.65;17.95;;;2.60;80.30;;;0.14;93.44;95340.00;4958258;28;20034;-64
2021/11/25 09:20:25;;;;;;;31.67;18.70;;;2.60;80.00;;;0.15;92.53;95335.63;4989513;28;20039;-64
2021/11/25 09:22:51;;;;;;;35.70;19.20;;;2.40;80.00;;;0.16;92.73;95326.91;4990201;28;20383;-64
2021/11/25 09:25:17;;;;;;;35.63;18.92;;;2.40;80.00;;;0.18;92.30;95325.00;4990226;28;20305;-64
2021/11/25 09:27:45;;;;;;;34.10;19.02;;;2.40;79.70;;;0.10;92.46;95338.66;4957824;28;20041;-64
2021/11/25 09:30:11;;;;;;;36.92;19.95;;;2.30;80.30;;;0.08;92.04;95345.75;4989597;28;20038;-64
2021/11/25 09:32:37;;;;;;;39.50;20.20;;;2.30;80.60;;;0.09;91.99;95351.72;4989864;28;20498;-64
2021/11/25 09:35:03;;;;;;;37.97;20.33;;;2.20;80.70;;;0.10;92.54;95337.84;4990051;28;20050;-64
2021/11/25 09:37:29;;;;;;;35.10;19.50;;;2.30;80.50;;;0.10;92.47;95338.66;4989604;28;20074;-64
2021/11/25 09:39:55;;;;;;;33.97;20.13;;;2.40;80.30;;;0.14;92.03;95334.00;4989406;28;20039;-64
2021/11/25 09:42:21;;;;;;;33.78;19.73;;;2.60;80.10;;;0.17;92.85;95336.31;4956405;28;20335;-64
2021/11/25 09:44:47;;;;;;;36.72;19.90;;;2.60;80.00;;;0.22;92.98;95341.84;4989858;28;20039;-64
2021/11/25 09:47:12;;;;;;;37.10;20.45;;;2.60;79.90;;;0.23;92.52;95344.31;4973607;28;20113;-64
2021/11/25 09:49:38;;;;;;;35.45;20.63;;;2.60;80.00;;;0.27;92.85;95343.06;4973372;28;20034;-65
2021/11/25 09:52:04;;;;;;;44.10;19.98;;;2.60;80.10;;;0.24;92.62;95334.78;4941221;28;20031;-64
2021/11/25 09:54:30;;;;;;;37.38;20.58;;;2.40;79.90;;;0.23;92.23;95333.16;4972121;28;20636;-64
2021/11/25 09:56:55;;;;;;;37.33;21.10;;;2.50;80.40;;;0.23;92.55;95317.66;4973019;28;20027;-64
2021/11/25 09:59:21;;;;;;;37.58;21.42;;;2.60;80.10;;;0.27;92.20;95331.91;4973374;28;20081;-64
2021/11/25 10:01:47;;;;;;;38.78;20.85;;;2.60;80.00;;;0.26;91.91;95330.28;4957044;28;20038;-64
2021/11/25 10:04:13;;;;;;;35.75;20.33;;;2.40;80.20;;;0.23;91.52;95333.16;4972577;28;20038;-65
2021/11/25 10:06:53;;;;;;;38.15;20.38;;;2.50;80.10;;;0.23;92.29;95322.81;4990577;28;20193;-64
2021/11/25 10:09:34;;;;;;;37.38;20.33;;;2.60;80.00;;;0.25;92.64;95320.91;4989180;28;20035;-64
2021/11/25 10:12:01;;;;;;;32.40;19.75;;;2.40;80.00;;;0.20;92.39;95328.25;4989455;28;20042;-64
2021/11/25 10:14:37;;;;;;;35.65;21.05;;;2.40;80.40;;;0.19;92.43;95316.28;4972659;28;20030;-64